createdAt,value
2022-11-05T00:00:37.668Z,18.32
2022-11-05T00:03:27.033Z,13.65
2022-11-05T00:06:14.406Z,15.32
2022-11-05T00:09:04.469Z,13.35
2022-11-05T00:11:51.756Z,11.68
2022-11-05T00:14:43.089Z,13.88
2022-11-05T00:17:13.429Z,11.45
2022-11-05T00:19:45.026Z,13.35
2022-11-05T00:22:32.809Z,16.12
2022-11-05T00:25:19.711Z,14.43
2022-11-05T00:27:51.452Z,14.15
2022-11-05T00:30:25.167Z,15.23
2022-11-05T00:32:53.515Z,13.03
2022-11-05T00:35:22.452Z,14.38
2022-11-05T00:37:50.795Z,14.70
2022-11-05T00:40:18.601Z,14.43
2022-11-05T00:43:05.001Z,15.72
2022-11-05T00:45:32.909Z,13.68
2022-11-05T00:48:19.211Z,14.33
2022-11-05T00:50:46.911Z,17.42
2022-11-05T00:53:14.771Z,13.53
2022-11-05T00:55:45.409Z,14.93
2022-11-05T00:58:17.292Z,13.32
2022-11-05T01:00:51.745Z,14.07
2022-11-05T01:03:23.480Z,14.73
2022-11-05T01:05:54.800Z,13.40
2022-11-05T01:08:25.463Z,14.90
2022-11-05T01:10:56.226Z,14.15
2022-11-05T01:13:27.882Z,12.98
2022-11-05T01:15:56.822Z,15.23
2022-11-05T01:18:24.736Z,13.32
2022-11-05T01:20:52.584Z,13.18
2022-11-05T01:23:20.780Z,14.05
2022-11-05T01:25:48.876Z,13.95
2022-11-05T01:28:16.371Z,12.90
2022-11-05T01:30:44.227Z,14.40
2022-11-05T01:33:12.156Z,12.47
2022-11-05T01:35:39.972Z,12.25
2022-11-05T01:38:07.461Z,10.32
2022-11-05T01:40:35.259Z,10.18
2022-11-05T01:43:02.770Z,12.50
2022-11-05T01:45:30.854Z,10.72
2022-11-05T01:48:17.028Z,8.78
2022-11-05T01:50:56.486Z,11.15
2022-11-05T01:53:53.843Z,11.35
2022-11-05T01:56:26.888Z,10.55
2022-11-05T02:01:29.168Z,10.88
2022-11-05T02:04:01.826Z,10.18
2022-11-05T02:06:32.626Z,20.13
2022-11-05T02:09:07.338Z,10.53
2022-11-05T02:11:34.976Z,11.33
2022-11-05T02:14:02.727Z,10.65
2022-11-05T02:16:53.922Z,13.55
2022-11-05T02:20:01.591Z,10.85
2022-11-05T02:23:21.644Z,9.73
2022-11-05T02:26:19.178Z,11.53
2022-11-05T02:29:18.670Z,11.20
2022-11-05T02:32:35.729Z,13.10
2022-11-05T02:35:20.749Z,10.70
2022-11-05T02:37:57.445Z,12.63
2022-11-05T02:40:55.425Z,13.50
2022-11-05T02:43:52.706Z,12.47
2022-11-05T02:46:47.031Z,12.40
2022-11-05T02:49:49.415Z,12.50
2022-11-05T02:52:28.382Z,11.03
2022-11-05T02:55:13.420Z,9.75
2022-11-05T02:57:47.410Z,9.18
2022-11-05T03:00:52.477Z,9.88
2022-11-05T03:03:34.595Z,11.28
2022-11-05T03:06:25.506Z,11.95
2022-11-05T03:09:36.895Z,10.40
2022-11-05T03:12:28.190Z,11.38
2022-11-05T03:15:22.801Z,19.25
2022-11-05T03:17:56.008Z,13.68
2022-11-05T03:20:50.751Z,10.23
2022-11-05T03:23:29.276Z,9.60
2022-11-05T03:26:08.424Z,9.25
2022-11-05T03:28:40.437Z,10.23
2022-11-05T03:31:10.462Z,12.15
2022-11-05T03:33:40.095Z,15.05
2022-11-05T03:36:15.196Z,10.35
2022-11-05T03:38:47.366Z,10.32
2022-11-05T03:41:16.117Z,13.43
2022-11-05T03:43:48.481Z,12.30
2022-11-05T03:46:30.233Z,12.35
2022-11-05T03:49:01.670Z,13.95
2022-11-05T03:51:46.728Z,10.58
2022-11-05T03:54:15.302Z,15.20
2022-11-05T03:57:18.939Z,15.08
2022-11-05T03:59:49.177Z,12.85
2022-11-05T04:02:22.069Z,12.33
2022-11-05T04:04:50.431Z,12.80
2022-11-05T04:07:37.134Z,12.30
2022-11-05T04:10:24.412Z,14.78
2022-11-05T04:13:11.153Z,13.93
2022-11-05T04:15:57.747Z,12.60
2022-11-05T04:18:25.331Z,12.43
2022-11-05T04:21:11.864Z,12.50
2022-11-05T04:23:57.768Z,11.05
2022-11-05T04:26:25.418Z,14.20
2022-11-05T04:29:11.861Z,15.83
2022-11-05T04:31:39.595Z,16.37
2022-11-05T04:34:07.386Z,16.65
2022-11-05T04:36:35.004Z,16.80
2022-11-05T04:39:02.569Z,19.17
2022-11-05T04:41:30.106Z,12.25
2022-11-05T04:43:57.811Z,13.15
2022-11-05T04:46:27.942Z,11.70
2022-11-05T04:48:55.472Z,13.15
2022-11-05T04:51:23.088Z,11.28
2022-11-05T04:53:50.712Z,20.60
2022-11-05T04:56:23.986Z,11.70
2022-11-05T04:58:52.109Z,13.65
2022-11-05T05:01:23.384Z,14.43
2022-11-05T05:03:53.513Z,12.90
2022-11-05T05:06:21.983Z,12.20
2022-11-05T05:08:51.529Z,13.22
2022-11-05T05:11:21.614Z,12.07
2022-11-05T05:13:50.184Z,12.78
2022-11-05T05:16:24.632Z,13.18
2022-11-05T05:18:53.479Z,13.95
2022-11-05T05:21:38.280Z,12.40
2022-11-05T05:24:12.336Z,13.30
2022-11-05T05:26:46.077Z,11.63
2022-11-05T05:29:14.912Z,15.05
2022-11-05T05:31:43.289Z,16.97
2022-11-05T05:34:13.601Z,13.72
2022-11-05T05:36:41.651Z,13.10
2022-11-05T05:39:10.374Z,24.57
2022-11-05T05:41:39.679Z,15.88
2022-11-05T05:44:07.805Z,11.93
2022-11-05T05:46:35.254Z,13.18
2022-11-05T05:49:06.702Z,12.65
2022-11-05T05:51:32.628Z,12.88
2022-11-05T05:54:00.116Z,16.15
2022-11-05T05:56:27.650Z,15.48
2022-11-05T05:58:55.225Z,12.35
2022-11-05T06:01:23.187Z,12.23
2022-11-05T06:03:50.645Z,11.68
2022-11-05T06:06:19.439Z,14.53
2022-11-05T06:08:48.990Z,11.90
2022-11-05T06:11:16.733Z,12.10
2022-11-05T06:13:44.230Z,14.95
2022-11-05T06:16:12.118Z,11.83
2022-11-05T06:18:40.022Z,12.23
2022-11-05T06:21:11.517Z,11.93
2022-11-05T06:23:41.709Z,14.60
2022-11-05T06:26:13.292Z,12.58
2022-11-05T06:28:41.664Z,10.75
2022-11-05T06:31:11.067Z,13.03
2022-11-05T06:33:39.778Z,14.33
2022-11-05T06:36:08.825Z,19.98
2022-11-05T06:38:36.999Z,20.20
2022-11-05T06:41:10.335Z,20.55
2022-11-05T06:43:36.253Z,16.60
2022-11-05T06:46:03.913Z,14.65
2022-11-05T06:48:31.559Z,12.93
2022-11-05T06:50:59.214Z,13.85
2022-11-05T06:53:27.703Z,13.68
2022-11-05T06:55:55.489Z,12.47
2022-11-05T06:58:23.215Z,12.23
2022-11-05T07:00:51.040Z,14.90
2022-11-05T07:03:18.524Z,12.65
2022-11-05T07:05:48.531Z,14.90
2022-11-05T07:08:16.331Z,11.53
2022-11-05T07:10:43.886Z,13.35
2022-11-05T07:13:12.128Z,14.03
2022-11-05T07:15:39.977Z,11.95
2022-11-05T07:18:07.686Z,13.88
2022-11-05T07:20:35.688Z,18.73
2022-11-05T07:23:11.840Z,15.05
2022-11-05T07:25:41.326Z,16.15
2022-11-05T07:28:10.511Z,11.48
2022-11-05T07:30:38.408Z,12.58
2022-11-05T07:33:05.844Z,13.40
2022-11-05T07:35:34.192Z,13.03
2022-11-05T07:38:01.931Z,11.80
2022-11-05T07:40:30.166Z,15.03
2022-11-05T07:43:00.429Z,17.20
2022-11-05T07:45:30.722Z,13.30
2022-11-05T07:48:03.634Z,16.02
2022-11-05T07:50:35.282Z,14.55
2022-11-05T07:53:06.252Z,15.45
2022-11-05T07:55:34.363Z,14.05
2022-11-05T07:58:02.373Z,14.10
2022-11-05T08:00:30.236Z,12.73
2022-11-05T08:03:08.269Z,17.40
2022-11-05T08:05:37.470Z,15.90
2022-11-05T08:08:07.969Z,14.98
2022-11-05T08:10:37.475Z,15.48
2022-11-05T08:13:06.873Z,13.30
2022-11-05T08:15:35.549Z,14.98
2022-11-05T08:18:07.251Z,11.85
2022-11-05T08:20:36.569Z,11.12
2022-11-05T08:23:04.529Z,11.15
2022-11-05T08:25:32.100Z,18.32
2022-11-05T08:28:07.132Z,11.22
2022-11-05T08:30:35.197Z,12.33
2022-11-05T08:33:07.448Z,12.03
2022-11-05T08:35:36.806Z,14.00
2022-11-05T08:38:07.224Z,12.88
2022-11-05T08:40:36.473Z,10.30
2022-11-05T08:43:07.073Z,13.03
2022-11-05T08:45:39.027Z,14.53
2022-11-05T08:48:10.906Z,16.30
2022-11-05T08:50:39.009Z,14.45
2022-11-05T08:53:08.370Z,13.90
2022-11-05T08:55:37.929Z,15.78
2022-11-05T08:58:17.453Z,17.70
2022-11-05T09:00:48.751Z,20.90
2022-11-05T09:03:17.628Z,14.00
2022-11-05T09:05:45.381Z,19.02
2022-11-05T09:08:17.017Z,17.67
2022-11-05T09:10:46.908Z,19.07
2022-11-05T09:13:18.666Z,20.62
2022-11-05T09:15:44.269Z,15.50
2022-11-05T09:18:13.836Z,15.15
2022-11-05T09:20:41.873Z,17.20
2022-11-05T09:23:11.755Z,14.63
2022-11-05T09:25:39.456Z,17.12
2022-11-05T09:28:17.622Z,18.27
2022-11-05T09:30:49.440Z,26.85
2022-11-05T09:33:21.362Z,20.82
2022-11-05T09:35:49.423Z,17.50
2022-11-05T09:38:17.904Z,16.52
2022-11-05T09:41:02.381Z,15.18
2022-11-05T09:43:38.256Z,20.32
2022-11-05T09:46:24.944Z,23.42
2022-11-05T09:49:02.804Z,25.68
2022-11-05T09:51:31.735Z,20.55
2022-11-05T09:54:00.518Z,15.05
2022-11-05T09:56:32.274Z,15.93
2022-11-05T09:59:25.402Z,18.17
2022-11-05T10:02:03.184Z,13.77
2022-11-05T10:04:34.137Z,11.88
2022-11-05T10:07:05.612Z,16.00
2022-11-05T10:09:37.969Z,15.70
2022-11-05T10:12:32.249Z,14.60
2022-11-05T10:15:14.408Z,15.85
2022-11-05T10:17:49.097Z,16.40
2022-11-05T10:20:28.048Z,13.45
2022-11-05T10:23:00.714Z,15.28
2022-11-05T10:25:32.734Z,17.00
2022-11-05T10:28:00.547Z,22.13
2022-11-05T10:30:28.211Z,18.92
2022-11-05T10:33:00.082Z,19.07
2022-11-05T10:35:31.398Z,20.60
2022-11-05T10:37:59.073Z,22.95
2022-11-05T10:40:31.953Z,21.70
2022-11-05T10:43:26.310Z,22.37
2022-11-05T10:46:28.527Z,22.35
2022-11-05T10:49:36.680Z,23.12
2022-11-05T10:52:24.413Z,26.60
2022-11-05T10:54:56.350Z,27.45
2022-11-05T10:57:38.037Z,24.63
2022-11-05T11:00:21.674Z,30.27
2022-11-05T11:03:02.819Z,30.52
2022-11-05T11:05:39.340Z,23.60
2022-11-05T11:08:12.269Z,26.33
2022-11-05T11:10:50.738Z,27.02
2022-11-05T11:13:28.247Z,24.10
2022-11-05T11:16:16.037Z,24.52
2022-11-05T11:18:43.859Z,21.52
2022-11-05T11:21:19.250Z,27.13
2022-11-05T11:24:09.094Z,24.02
2022-11-05T11:26:40.264Z,23.83
2022-11-05T11:29:25.339Z,21.52
2022-11-05T11:31:58.783Z,23.38
2022-11-05T11:34:35.830Z,24.27
2022-11-05T11:37:19.525Z,22.65
2022-11-05T11:39:51.252Z,22.58
2022-11-05T11:42:30.669Z,25.25
2022-11-05T11:45:03.189Z,41.42
2022-11-05T11:47:32.385Z,39.23
2022-11-05T11:50:02.164Z,45.45
2022-11-05T11:52:36.296Z,41.50
2022-11-05T11:55:20.629Z,41.42
2022-11-05T11:57:57.235Z,28.77
2022-11-05T12:00:26.453Z,29.67
2022-11-05T12:03:18.167Z,31.70
2022-11-05T12:05:57.797Z,25.15
2022-11-05T12:08:44.980Z,23.52
2022-11-05T12:11:14.861Z,24.77
2022-11-05T12:16:54.619Z,23.10
2022-11-05T12:19:42.669Z,22.60
2022-11-05T12:22:15.513Z,25.27
2022-11-05T12:24:54.150Z,27.73
2022-11-05T12:27:48.501Z,28.55
2022-11-05T12:30:20.165Z,49.13
2022-11-05T12:33:17.664Z,61.80
2022-11-05T12:36:01.599Z,34.70
2022-11-05T12:38:52.368Z,36.38
2022-11-05T12:41:40.175Z,37.98
2022-11-05T12:44:42.282Z,41.53
2022-11-05T12:47:39.524Z,43.52
2022-11-05T12:50:24.392Z,42.00
2022-11-05T12:53:23.250Z,40.48
2022-11-05T12:55:52.710Z,41.35
2022-11-05T12:58:37.438Z,44.77
2022-11-05T13:01:09.618Z,44.20
2022-11-05T13:03:54.831Z,46.65
2022-11-05T13:06:30.544Z,47.95
2022-11-05T13:09:09.400Z,55.85
2022-11-05T13:12:08.694Z,61.85
2022-11-05T13:14:59.862Z,73.02
2022-11-05T13:17:41.535Z,80.70
2022-11-05T13:20:29.835Z,68.57
2022-11-05T13:23:15.077Z,56.20
2022-11-05T13:25:51.319Z,63.70
2022-11-05T13:28:54.531Z,67.87
2022-11-05T13:31:27.669Z,69.53
2022-11-05T13:33:57.185Z,75.83
2022-11-05T13:37:03.684Z,99.58
2022-11-05T13:39:51.066Z,58.00
2022-11-05T13:42:44.167Z,46.10
2022-11-05T13:45:25.697Z,57.07
2022-11-05T13:48:50.050Z,51.10
2022-11-05T13:51:49.763Z,39.70
2022-11-05T13:54:57.502Z,36.68
2022-11-05T13:57:51.785Z,29.52
2022-11-05T14:00:24.933Z,33.45
2022-11-05T14:03:05.711Z,61.73
2022-11-05T14:05:38.035Z,74.00
2022-11-05T14:08:19.148Z,49.90
2022-11-05T14:11:07.094Z,40.33
2022-11-05T14:13:39.241Z,40.92
2022-11-05T14:16:20.332Z,34.88
2022-11-05T14:18:55.952Z,29.07
2022-11-05T14:21:31.217Z,27.85
2022-11-05T14:24:27.047Z,28.85
2022-11-05T14:27:06.031Z,28.75
2022-11-05T14:29:41.683Z,27.15
2022-11-05T14:32:21.215Z,26.73
2022-11-05T14:35:19.103Z,32.23
2022-11-05T14:37:55.713Z,26.37
2022-11-05T14:40:41.515Z,33.60
2022-11-05T14:43:20.737Z,40.28
2022-11-05T14:46:01.673Z,44.03
2022-11-05T14:48:49.439Z,63.20
2022-11-05T14:51:36.910Z,161.82
2022-11-05T14:54:25.095Z,85.92
2022-11-05T14:56:58.871Z,57.33
2022-11-05T14:59:33.963Z,51.42
2022-11-05T15:02:11.685Z,43.05
2022-11-05T15:04:42.024Z,40.52
2022-11-05T15:07:14.979Z,40.85
2022-11-05T15:10:08.923Z,46.53
2022-11-05T15:12:46.489Z,52.80
2022-11-05T15:15:21.977Z,56.35
2022-11-05T15:18:00.403Z,49.58
2022-11-05T15:20:44.262Z,40.40
2022-11-05T15:23:20.355Z,35.43
2022-11-05T15:26:22.357Z,32.23
2022-11-05T15:28:52.726Z,33.75
2022-11-05T15:31:36.610Z,30.27
2022-11-05T15:34:32.712Z,27.70
2022-11-05T15:37:05.878Z,31.02
2022-11-05T15:39:44.692Z,33.05
2022-11-05T15:42:22.286Z,35.55
2022-11-05T15:44:54.748Z,37.75
2022-11-05T15:47:26.118Z,42.33
2022-11-05T15:49:57.563Z,40.85
2022-11-05T15:52:35.871Z,41.55
2022-11-05T15:55:20.146Z,48.73
2022-11-05T15:57:58.417Z,52.00
2022-11-05T16:00:29.772Z,65.78
2022-11-05T16:03:02.617Z,58.92
2022-11-05T16:05:37.701Z,56.95
2022-11-05T16:08:05.412Z,45.63
2022-11-05T16:10:37.681Z,43.75
2022-11-05T16:13:42.270Z,40.48
2022-11-05T16:16:21.259Z,35.52
2022-11-05T16:18:49.000Z,28.90
2022-11-05T16:21:21.691Z,33.23
2022-11-05T16:23:58.837Z,26.83
2022-11-05T16:29:18.339Z,33.98
2022-11-05T16:31:51.864Z,33.78
2022-11-05T16:34:29.973Z,34.03
2022-11-05T16:36:58.932Z,28.15
2022-11-05T16:39:27.333Z,24.85
2022-11-05T16:41:54.696Z,27.60
2022-11-05T16:44:22.457Z,26.95
2022-11-05T16:46:50.388Z,27.32
2022-11-05T16:49:19.964Z,23.10
2022-11-05T16:51:47.420Z,24.65
2022-11-05T16:54:14.974Z,29.07
2022-11-05T16:56:43.345Z,26.15
2022-11-05T16:59:13.035Z,28.40
2022-11-05T17:01:42.497Z,28.10
2022-11-05T17:04:12.981Z,26.48
2022-11-05T17:06:40.437Z,29.37
2022-11-05T17:09:07.890Z,29.77
2022-11-05T17:11:35.779Z,33.08
2022-11-05T17:14:03.484Z,29.70
2022-11-05T17:16:31.796Z,27.25
2022-11-05T17:18:59.586Z,26.62
2022-11-05T17:21:28.293Z,26.07
2022-11-05T17:23:55.766Z,24.35
2022-11-05T17:26:23.571Z,23.87
2022-11-05T17:28:51.213Z,22.15
2022-11-05T17:31:19.146Z,19.52
2022-11-05T17:33:46.764Z,21.70
2022-11-05T17:36:15.629Z,26.90
2022-11-05T17:38:43.170Z,23.70
2022-11-05T17:41:16.829Z,30.25
2022-11-05T17:43:44.842Z,28.83
2022-11-05T17:46:15.766Z,30.77
2022-11-05T17:48:44.299Z,33.58
2022-11-05T17:51:15.279Z,29.52
2022-11-05T17:53:44.180Z,25.90
2022-11-05T17:56:14.023Z,26.95
2022-11-05T17:58:42.264Z,26.85
2022-11-05T18:01:27.241Z,26.10
2022-11-05T18:03:55.547Z,23.15
2022-11-05T18:06:23.376Z,22.93
2022-11-05T18:08:51.159Z,27.45
2022-11-05T18:11:18.836Z,23.45
2022-11-05T18:13:46.630Z,25.77
2022-11-05T18:16:14.303Z,24.32
2022-11-05T18:18:42.034Z,26.52
2022-11-05T18:21:09.610Z,27.77
2022-11-05T18:23:37.287Z,25.65
2022-11-05T18:26:11.584Z,30.27
2022-11-05T18:28:39.587Z,29.82
2022-11-05T18:31:18.335Z,29.52
2022-11-05T18:33:49.407Z,23.57
2022-11-05T18:36:23.445Z,26.93
2022-11-05T18:38:51.435Z,25.30
2022-11-05T18:41:19.846Z,22.67
2022-11-05T18:43:47.660Z,23.50
2022-11-05T18:46:29.677Z,26.87
2022-11-05T18:48:45.168Z,27.13
2022-11-05T18:51:15.467Z,24.67
2022-11-05T18:53:43.359Z,25.40
2022-11-05T18:56:14.538Z,26.05
2022-11-05T18:58:42.831Z,24.65
2022-11-05T19:01:21.562Z,30.02
2022-11-05T19:03:54.137Z,26.42
2022-11-05T19:06:21.491Z,24.72
2022-11-05T19:08:49.125Z,23.73
2022-11-05T19:11:20.579Z,24.43
2022-11-05T19:13:48.903Z,27.62
2022-11-05T19:16:20.452Z,26.77
2022-11-05T19:18:49.097Z,27.55
2022-11-05T19:21:21.243Z,21.00
2022-11-05T19:23:49.164Z,23.18
2022-11-05T19:26:28.189Z,21.05
2022-11-05T19:28:52.424Z,20.68
2022-11-05T19:31:23.161Z,23.95
2022-11-05T19:33:51.509Z,26.27
2022-11-05T19:36:22.156Z,25.55
2022-11-05T19:38:57.197Z,23.60
2022-11-05T19:41:26.008Z,22.98
2022-11-05T19:43:54.815Z,21.30
2022-11-05T19:46:24.367Z,23.98
2022-11-05T19:48:52.342Z,23.22
2022-11-05T19:51:24.577Z,22.75
2022-11-05T19:53:54.576Z,24.80
2022-11-05T19:56:26.459Z,26.07
2022-11-05T19:58:54.212Z,22.22
2022-11-05T20:01:23.437Z,22.62
2022-11-05T20:03:51.729Z,22.93
2022-11-05T20:06:28.166Z,21.80
2022-11-05T20:11:32.136Z,19.62
2022-11-05T20:13:59.865Z,18.57
2022-11-05T20:16:35.609Z,20.77
2022-11-05T20:19:06.058Z,19.35
2022-11-05T20:21:34.579Z,18.10
2022-11-05T20:24:02.236Z,23.75
2022-11-05T20:26:30.466Z,20.02
2022-11-05T20:28:58.510Z,17.37
2022-11-05T20:31:25.922Z,17.42
2022-11-05T20:33:54.069Z,22.85
2022-11-05T20:36:24.272Z,19.10
2022-11-05T20:38:57.477Z,19.27
2022-11-05T20:41:26.395Z,21.48
2022-11-05T20:43:54.272Z,20.62
2022-11-05T20:46:22.305Z,19.27
2022-11-05T20:48:50.193Z,24.82
2022-11-05T20:51:22.385Z,21.40
2022-11-05T20:53:56.181Z,18.25
2022-11-05T20:56:28.856Z,20.82
2022-11-05T20:58:58.646Z,20.63
2022-11-05T21:01:29.537Z,20.12
2022-11-05T21:03:59.056Z,18.23
2022-11-05T21:06:26.602Z,20.20
2022-11-05T21:08:54.850Z,17.45
2022-11-05T21:11:23.138Z,21.00
2022-11-05T21:13:50.520Z,21.05
2022-11-05T21:16:19.831Z,23.62
2022-11-05T21:18:47.713Z,21.00
2022-11-05T21:21:18.688Z,22.35
2022-11-05T21:23:46.663Z,20.68
2022-11-05T21:26:16.331Z,24.35
2022-11-05T21:28:43.968Z,22.05
2022-11-05T21:31:12.011Z,19.60
2022-11-05T21:33:39.873Z,22.27
2022-11-05T21:36:11.161Z,19.67
2022-11-05T21:38:39.610Z,21.23
2022-11-05T21:41:09.501Z,21.42
2022-11-05T21:43:41.188Z,21.02
2022-11-05T21:46:10.744Z,22.02
2022-11-05T21:48:38.522Z,19.55
2022-11-05T21:51:24.539Z,22.20
2022-11-05T21:54:10.125Z,22.60
2022-11-05T21:56:56.191Z,22.52
2022-11-05T21:59:43.462Z,21.45
2022-11-05T22:02:15.185Z,24.55
2022-11-05T22:04:47.293Z,26.97
2022-11-05T22:07:19.461Z,26.57
2022-11-05T22:09:47.525Z,22.82
2022-11-05T22:12:15.075Z,29.05
2022-11-05T22:14:42.598Z,25.37
2022-11-05T22:17:10.410Z,28.73
2022-11-05T22:19:38.180Z,22.13
2022-11-05T22:22:06.608Z,20.90
2022-11-05T22:24:35.401Z,23.98
2022-11-05T22:27:10.393Z,23.00
2022-11-05T22:29:38.396Z,21.23
2022-11-05T22:32:06.628Z,21.25
2022-11-05T22:34:34.114Z,19.40
2022-11-05T22:37:01.748Z,19.25
2022-11-05T22:39:29.512Z,22.07
2022-11-05T22:41:58.056Z,20.57
2022-11-05T22:44:27.235Z,22.62
2022-11-05T22:46:55.124Z,22.42
2022-11-05T22:49:23.248Z,23.87
2022-11-05T22:51:50.989Z,22.80
2022-11-05T22:54:18.803Z,22.75
2022-11-05T22:56:46.387Z,19.25
2022-11-05T22:59:15.255Z,21.68
2022-11-05T23:01:44.690Z,20.75
2022-11-05T23:04:13.655Z,22.80
2022-11-05T23:06:59.878Z,19.65
2022-11-05T23:09:53.216Z,20.32
2022-11-05T23:12:34.885Z,22.95
2022-11-05T23:15:06.810Z,22.58
2022-11-05T23:17:53.193Z,20.82
2022-11-05T23:20:41.325Z,19.87
2022-11-05T23:23:31.207Z,20.72
2022-11-05T23:26:02.127Z,21.05
2022-11-05T23:28:29.517Z,20.37
2022-11-05T23:31:15.638Z,21.75
2022-11-05T23:33:43.047Z,25.80
2022-11-05T23:36:31.397Z,25.00
2022-11-05T23:38:59.162Z,23.50
2022-11-05T23:41:45.118Z,25.62
2022-11-05T23:44:31.155Z,21.95
2022-11-05T23:47:17.279Z,24.47
2022-11-05T23:49:44.587Z,21.17
2022-11-05T23:52:11.944Z,24.60
2022-11-05T23:54:39.640Z,22.25
2022-11-05T23:57:07.022Z,19.55
2022-11-05T23:59:34.487Z,18.07
